Terminal Aerodrome Forecast
Issued by NWS

Current Version | Previous Version | Text Only | Print | Product List | Glossary On
Versions: 1 2 3 4 5 6 7 8 9 10 11 12 13 14 15
000
FTUS46 KSGX 251136
TAFCRQ
TAF
KCRQ 251136Z 2512/2612 16003KT P6SM SCT030 OVC040
     FM251800 24008G15KT P6SM SCT025 BKN040
     FM260000 27015G25KT P6SM VCSH BKN025 OVC040
     FM260600 25009KT P6SM SCT025 BKN035=

USA.gov is the U.S. government's official web portal to all federal, state and local government web resources and services.